createdAt,value
2022-09-06T00:01:40.325Z,3.53
2022-09-06T00:04:26.353Z,3.10
2022-09-06T00:07:12.652Z,3.13
2022-09-06T00:09:58.709Z,3.40
2022-09-06T00:12:44.736Z,3.42
2022-09-06T00:15:31.004Z,3.55
2022-09-06T00:18:17.181Z,3.25
2022-09-06T00:21:04.511Z,3.00
2022-09-06T00:23:50.970Z,3.53
2022-09-06T00:26:36.840Z,3.22
2022-09-06T00:29:22.846Z,3.03
2022-09-06T00:32:09.152Z,3.20
2022-09-06T00:34:55.400Z,3.22
2022-09-06T00:37:41.321Z,3.20
2022-09-06T00:40:29.546Z,3.38
2022-09-06T00:43:15.718Z,3.42
2022-09-06T00:46:02.610Z,3.38
2022-09-06T00:48:50.595Z,3.00
2022-09-06T00:51:37.195Z,3.30
2022-09-06T00:54:23.605Z,3.53
2022-09-06T00:57:10.434Z,3.65
2022-09-06T00:59:56.778Z,3.20
2022-09-06T01:02:43.550Z,3.50
2022-09-06T01:05:39.441Z,3.03
2022-09-06T01:08:51.373Z,3.50
2022-09-06T01:11:55.952Z,3.50
2022-09-06T01:15:09.761Z,3.13
2022-09-06T01:18:01.937Z,3.35
2022-09-06T01:21:06.272Z,3.40
2022-09-06T01:23:59.471Z,3.60
2022-09-06T01:27:03.899Z,3.70
2022-09-06T01:30:02.310Z,3.17
2022-09-06T01:33:07.281Z,2.80
2022-09-06T01:36:01.195Z,3.28
2022-09-06T01:38:47.096Z,2.95
2022-09-06T01:41:33.194Z,2.85
2022-09-06T01:44:20.206Z,3.08
2022-09-06T01:47:31.015Z,3.30
2022-09-06T01:50:35.528Z,3.53
2022-09-06T01:53:46.696Z,3.40
2022-09-06T01:57:07.974Z,2.97
2022-09-06T01:59:53.932Z,3.25
2022-09-06T02:03:10.808Z,3.30
2022-09-06T02:06:15.312Z,2.88
2022-09-06T02:09:06.856Z,3.70
2022-09-06T02:12:01.113Z,3.00
2022-09-06T02:14:54.660Z,3.10
2022-09-06T02:17:45.607Z,3.40
2022-09-06T02:20:34.220Z,3.20
2022-09-06T02:23:24.552Z,3.10
2022-09-06T02:26:20.900Z,3.47
2022-09-06T02:29:07.066Z,3.22
2022-09-06T02:31:59.689Z,3.70
2022-09-06T02:34:46.325Z,3.38
2022-09-06T02:37:32.791Z,3.45
2022-09-06T02:40:18.917Z,3.42
2022-09-06T02:43:04.956Z,3.35
2022-09-06T02:45:50.989Z,3.50
2022-09-06T02:48:37.352Z,3.35
2022-09-06T02:51:23.757Z,3.33
2022-09-06T02:54:09.857Z,3.50
2022-09-06T02:56:55.862Z,3.17
2022-09-06T02:59:41.967Z,3.20
2022-09-06T03:02:27.836Z,2.85
2022-09-06T03:05:13.710Z,3.28
2022-09-06T03:07:59.836Z,3.10
2022-09-06T03:10:52.960Z,3.58
2022-09-06T03:13:39.087Z,2.88
2022-09-06T03:16:25.126Z,3.17
2022-09-06T03:19:11.472Z,3.22
2022-09-06T03:21:57.487Z,3.05
2022-09-06T03:24:43.889Z,3.17
2022-09-06T03:27:29.820Z,3.15
2022-09-06T03:30:16.073Z,2.78
2022-09-06T03:33:03.058Z,2.95
2022-09-06T03:35:53.875Z,3.17
2022-09-06T03:38:40.191Z,3.28
2022-09-06T03:41:26.316Z,3.17
2022-09-06T03:44:12.392Z,3.40
2022-09-06T03:46:58.805Z,3.85
2022-09-06T03:49:45.408Z,3.65
2022-09-06T03:52:31.723Z,3.58
2022-09-06T03:55:17.915Z,3.40
2022-09-06T03:58:04.221Z,3.80
2022-09-06T04:00:54.198Z,3.28
2022-09-06T04:03:40.352Z,3.40
2022-09-06T04:06:26.472Z,3.28
2022-09-06T04:09:12.451Z,3.38
2022-09-06T04:11:58.597Z,3.47
2022-09-06T04:14:44.622Z,3.70
2022-09-06T04:17:30.521Z,3.65
2022-09-06T04:20:17.462Z,3.78
2022-09-06T04:23:04.119Z,3.80
2022-09-06T04:25:52.463Z,4.25
2022-09-06T04:28:38.523Z,3.95
2022-09-06T04:31:24.617Z,3.88
2022-09-06T04:34:10.509Z,3.63
2022-09-06T04:36:56.647Z,4.30
2022-09-06T04:39:43.008Z,3.85
2022-09-06T04:42:29.312Z,3.92
2022-09-06T04:45:15.460Z,3.90
2022-09-06T04:48:02.105Z,3.65
2022-09-06T04:50:48.303Z,3.15
2022-09-06T04:53:34.215Z,2.95
2022-09-06T04:56:22.449Z,3.35
2022-09-06T04:59:08.564Z,3.42
2022-09-06T05:01:55.287Z,3.80
2022-09-06T05:04:41.180Z,3.47
2022-09-06T05:07:27.033Z,3.92
2022-09-06T05:10:12.917Z,3.75
2022-09-06T05:12:58.677Z,3.97
2022-09-06T05:15:44.835Z,3.47
2022-09-06T05:18:31.334Z,4.07
2022-09-06T05:21:17.359Z,4.20
2022-09-06T05:24:03.541Z,4.57
2022-09-06T05:26:49.534Z,4.18
2022-09-06T05:29:35.338Z,4.30
2022-09-06T05:32:21.157Z,5.72
2022-09-06T05:35:07.357Z,5.40
2022-09-06T05:37:53.403Z,4.45
2022-09-06T05:40:39.430Z,4.45
2022-09-06T05:43:25.277Z,4.60
2022-09-06T05:46:11.664Z,4.68
2022-09-06T05:49:04.819Z,3.90
2022-09-06T05:51:52.213Z,3.65
2022-09-06T05:54:38.773Z,4.25
2022-09-06T06:07:35.726Z,4.00
2022-09-06T06:10:21.981Z,4.38
2022-09-06T06:13:07.949Z,4.05
2022-09-06T06:15:53.868Z,3.90
2022-09-06T06:18:40.041Z,3.80
2022-09-06T06:21:28.839Z,4.20
2022-09-06T06:24:14.875Z,3.90
2022-09-06T06:27:00.803Z,4.00
2022-09-06T06:29:46.752Z,3.75
2022-09-06T06:32:32.594Z,5.28
2022-09-06T06:35:18.402Z,4.80
2022-09-06T06:38:04.325Z,5.32
2022-09-06T06:40:50.127Z,5.47
2022-09-06T06:43:37.774Z,10.05
2022-09-06T06:46:26.588Z,8.05
2022-09-06T06:49:12.581Z,8.60
2022-09-06T06:51:58.326Z,10.25
2022-09-06T06:54:44.315Z,8.43
2022-09-06T06:57:30.152Z,6.70
2022-09-06T07:00:16.307Z,5.72
2022-09-06T07:03:02.509Z,5.22
2022-09-06T07:08:57.082Z,5.60
2022-09-06T07:11:43.417Z,5.22
2022-09-06T07:14:29.641Z,5.63
2022-09-06T07:17:15.469Z,4.75
2022-09-06T07:20:17.136Z,4.88
2022-09-06T07:26:16.288Z,5.07
2022-09-06T07:29:04.531Z,5.18
2022-09-06T07:34:57.277Z,4.50
2022-09-06T07:37:43.495Z,6.20
2022-09-06T07:40:30.848Z,5.55
2022-09-06T07:43:16.986Z,5.38
2022-09-06T07:46:06.131Z,5.57
2022-09-06T07:48:52.473Z,5.20
2022-09-06T07:51:38.619Z,5.80
2022-09-06T07:54:31.866Z,8.15
2022-09-06T07:57:18.109Z,6.80
2022-09-06T08:00:05.149Z,8.13
2022-09-06T08:02:57.723Z,9.68
2022-09-06T08:08:58.195Z,5.75
2022-09-06T08:11:44.589Z,5.28
2022-09-06T08:14:30.510Z,5.53
2022-09-06T08:17:16.589Z,5.68
2022-09-06T08:20:04.109Z,6.07
2022-09-06T08:22:50.412Z,5.13
2022-09-06T08:25:36.380Z,6.18
2022-09-06T08:28:25.605Z,4.80
2022-09-06T08:31:16.066Z,5.63
2022-09-06T08:34:03.872Z,6.03
2022-09-06T08:36:49.857Z,4.72
2022-09-06T08:39:35.746Z,6.15
2022-09-06T08:42:21.622Z,6.05
2022-09-06T08:45:16.724Z,6.05
2022-09-06T08:48:03.321Z,6.00
2022-09-06T08:50:59.910Z,6.65
2022-09-06T08:53:52.990Z,6.47
2022-09-06T08:57:11.269Z,5.57
2022-09-06T09:00:01.489Z,5.40
2022-09-06T09:02:51.819Z,5.60
2022-09-06T09:05:40.061Z,7.40
2022-09-06T09:08:29.324Z,5.47
2022-09-06T09:11:18.758Z,5.00
2022-09-06T09:14:19.222Z,4.75
2022-09-06T09:17:15.734Z,4.55
2022-09-06T09:20:02.216Z,3.65
2022-09-06T09:22:48.938Z,5.55
2022-09-06T09:25:36.378Z,4.10
2022-09-06T09:28:25.943Z,4.10
2022-09-06T09:31:14.362Z,3.97
2022-09-06T09:34:04.721Z,5.10
2022-09-06T09:40:57.135Z,3.97
2022-09-06T09:43:57.768Z,4.03
2022-09-06T09:49:32.616Z,3.90
2022-09-06T09:52:27.646Z,4.65
2022-09-06T09:55:13.637Z,4.90
2022-09-06T09:57:59.593Z,4.28
2022-09-06T10:00:45.597Z,3.50
2022-09-06T10:03:31.393Z,5.50
2022-09-06T10:09:35.978Z,4.70
2022-09-06T10:12:34.286Z,6.63
2022-09-06T10:15:53.718Z,5.43
2022-09-06T10:18:44.009Z,4.93
2022-09-06T10:21:30.285Z,4.57
2022-09-06T10:24:31.987Z,4.60
2022-09-06T10:27:26.267Z,5.70
2022-09-06T10:30:14.555Z,3.70
2022-09-06T10:33:23.792Z,5.72
2022-09-06T10:36:10.126Z,5.88
2022-09-06T10:39:04.257Z,5.60
2022-09-06T10:41:50.358Z,3.45
2022-09-06T10:44:45.727Z,4.35
2022-09-06T10:47:38.058Z,5.20
2022-09-06T10:50:54.747Z,4.57
2022-09-06T10:53:54.898Z,4.78
2022-09-06T10:57:09.336Z,3.65
2022-09-06T11:00:15.603Z,3.90
2022-09-06T11:06:13.907Z,4.45
2022-09-06T11:09:12.037Z,5.78
2022-09-06T11:12:09.668Z,4.53
2022-09-06T11:14:55.837Z,5.05
2022-09-06T11:18:06.609Z,5.07
2022-09-06T11:21:25.377Z,5.30
2022-09-06T11:24:16.026Z,4.60
2022-09-06T11:27:06.553Z,3.53
2022-09-06T11:29:56.605Z,3.80
2022-09-06T11:32:48.593Z,5.40
2022-09-06T11:35:35.054Z,4.90
2022-09-06T11:38:25.155Z,2.50
2022-09-06T11:41:16.265Z,4.47
2022-09-06T11:44:03.006Z,3.28
2022-09-06T11:46:49.120Z,5.65
2022-09-06T11:49:37.349Z,4.40
2022-09-06T11:52:49.254Z,3.15
2022-09-06T11:55:45.668Z,3.65
2022-09-06T11:58:51.019Z,2.72
2022-09-06T12:01:37.891Z,3.50
2022-09-06T12:04:23.881Z,5.05
2022-09-06T12:07:11.996Z,4.20
2022-09-06T12:10:01.733Z,4.20
2022-09-06T12:12:52.617Z,7.20
2022-09-06T12:15:46.405Z,4.47
2022-09-06T12:18:47.896Z,2.90
2022-09-06T12:21:38.274Z,2.88
2022-09-06T12:24:36.542Z,5.13
2022-09-06T12:27:24.063Z,3.10
2022-09-06T12:30:12.476Z,3.70
2022-09-06T12:32:58.756Z,3.22
2022-09-06T12:38:39.645Z,3.40
2022-09-06T12:41:28.553Z,3.67
2022-09-06T12:44:15.788Z,3.90
2022-09-06T12:47:10.878Z,3.72
2022-09-06T12:50:21.336Z,4.32
2022-09-06T12:53:24.642Z,4.28
2022-09-06T12:56:14.369Z,3.65
2022-09-06T12:59:17.730Z,5.13
2022-09-06T13:02:08.944Z,4.50
2022-09-06T13:05:06.856Z,4.45
2022-09-06T13:07:59.597Z,4.47
2022-09-06T13:10:47.542Z,5.05
2022-09-06T13:13:33.773Z,4.97
2022-09-06T13:16:21.171Z,4.40
2022-09-06T13:19:15.772Z,4.97
2022-09-06T13:22:03.998Z,4.57
2022-09-06T13:24:56.105Z,5.18
2022-09-06T13:27:46.165Z,4.60
2022-09-06T13:30:49.041Z,5.07
2022-09-06T13:33:37.710Z,5.18
2022-09-06T13:36:33.921Z,4.82
2022-09-06T13:39:49.271Z,4.70
2022-09-06T13:42:36.731Z,5.35
2022-09-06T13:45:29.943Z,4.80
2022-09-06T13:48:28.685Z,5.95
2022-09-06T13:51:15.555Z,5.75
2022-09-06T13:54:08.792Z,5.50
2022-09-06T13:56:55.457Z,5.38
2022-09-06T13:59:42.842Z,5.50
2022-09-06T14:02:29.046Z,4.50
2022-09-06T14:05:14.992Z,5.22
2022-09-06T14:08:01.231Z,6.28
2022-09-06T14:10:48.350Z,4.93
2022-09-06T14:13:34.404Z,5.95
2022-09-06T14:16:20.772Z,5.13
2022-09-06T14:19:06.884Z,5.97
2022-09-06T14:21:52.938Z,6.28
2022-09-06T14:24:39.342Z,5.63
2022-09-06T14:27:25.417Z,5.28
2022-09-06T14:30:11.990Z,6.45
2022-09-06T14:32:58.009Z,9.57
2022-09-06T14:35:43.818Z,6.70
2022-09-06T14:38:29.820Z,6.28
2022-09-06T14:41:17.759Z,5.25
2022-09-06T14:44:04.242Z,5.75
2022-09-06T14:46:53.463Z,5.50
2022-09-06T14:49:39.657Z,4.68
2022-09-06T14:52:25.570Z,4.53
2022-09-06T14:55:12.540Z,4.70
2022-09-06T14:57:59.413Z,3.95
2022-09-06T15:00:46.709Z,4.60
2022-09-06T15:03:34.597Z,4.47
2022-09-06T15:06:22.150Z,4.28
2022-09-06T15:09:08.248Z,4.50
2022-09-06T15:11:54.641Z,4.25
2022-09-06T15:14:41.296Z,5.03
2022-09-06T15:17:27.232Z,4.35
2022-09-06T15:20:13.305Z,4.68
2022-09-06T15:23:15.135Z,5.10
2022-09-06T15:26:08.316Z,5.15
2022-09-06T15:28:54.606Z,5.75
2022-09-06T15:31:41.961Z,5.40
2022-09-06T15:34:28.142Z,4.90
2022-09-06T15:37:13.959Z,4.85
2022-09-06T15:40:00.128Z,6.43
2022-09-06T15:42:46.428Z,6.00
2022-09-06T15:45:46.819Z,7.13
2022-09-06T15:48:43.594Z,7.75
2022-09-06T15:51:29.588Z,5.65
2022-09-06T15:54:18.173Z,5.00
2022-09-06T15:57:05.133Z,4.75
2022-09-06T15:59:51.150Z,4.68
2022-09-06T16:02:37.237Z,4.45
2022-09-06T16:08:29.770Z,4.57
2022-09-06T16:11:17.029Z,5.22
2022-09-06T16:14:05.400Z,5.47
2022-09-06T16:16:54.530Z,4.38
2022-09-06T16:19:40.862Z,4.35
2022-09-06T16:22:26.752Z,4.38
2022-09-06T16:25:12.662Z,5.07
2022-09-06T16:27:58.724Z,4.50
2022-09-06T16:30:45.034Z,4.80
2022-09-06T16:33:32.529Z,4.90
2022-09-06T16:36:19.304Z,4.10
2022-09-06T16:39:06.231Z,4.43
2022-09-06T16:41:52.607Z,4.20
2022-09-06T16:44:38.760Z,4.75
2022-09-06T16:47:25.227Z,4.18
2022-09-06T16:50:11.761Z,4.93
2022-09-06T16:52:58.453Z,4.90
2022-09-06T16:55:44.623Z,5.68
2022-09-06T16:58:31.297Z,5.90
2022-09-06T17:01:17.982Z,5.80
2022-09-06T17:04:05.839Z,6.53
2022-09-06T17:06:51.888Z,7.22
2022-09-06T17:09:37.977Z,6.65
2022-09-06T17:12:24.420Z,6.90
2022-09-06T17:15:10.896Z,6.95
2022-09-06T17:17:57.070Z,6.20
2022-09-06T17:20:54.837Z,7.72
2022-09-06T17:23:41.044Z,6.85
2022-09-06T17:26:27.370Z,6.50
2022-09-06T17:29:13.399Z,6.80
2022-09-06T17:32:00.383Z,6.65
2022-09-06T17:34:46.641Z,8.93
2022-09-06T17:37:33.563Z,7.85
2022-09-06T17:40:20.182Z,10.18
2022-09-06T17:43:06.917Z,8.63
2022-09-06T17:45:53.038Z,8.70
2022-09-06T17:48:39.375Z,9.32
2022-09-06T17:51:26.191Z,10.10
2022-09-06T17:54:13.317Z,8.93
2022-09-06T17:56:59.236Z,9.45
2022-09-06T17:59:45.493Z,8.73
2022-09-06T18:02:31.416Z,9.18
2022-09-06T18:05:18.110Z,9.05
2022-09-06T18:08:04.122Z,8.00
2022-09-06T18:10:50.610Z,8.15
2022-09-06T18:13:36.817Z,7.97
2022-09-06T18:16:23.089Z,8.27
2022-09-06T18:19:09.353Z,7.78
2022-09-06T18:21:57.322Z,7.93
2022-09-06T18:24:44.159Z,7.18
2022-09-06T18:27:30.190Z,7.10
2022-09-06T18:30:16.411Z,8.07
2022-09-06T18:33:02.741Z,8.38
2022-09-06T18:35:50.515Z,8.60
2022-09-06T18:38:38.620Z,8.63
2022-09-06T18:41:42.982Z,8.60
2022-09-06T18:44:33.134Z,7.97
2022-09-06T18:47:19.623Z,8.10
2022-09-06T18:50:08.258Z,8.15
2022-09-06T18:52:55.291Z,8.25
2022-09-06T18:55:43.309Z,8.52
2022-09-06T18:58:29.527Z,7.82
2022-09-06T19:01:17.996Z,8.32
2022-09-06T19:04:05.657Z,8.77
2022-09-06T19:06:52.230Z,8.82
2022-09-06T19:09:38.724Z,9.50
2022-09-06T19:12:25.067Z,9.30
2022-09-06T19:15:13.835Z,9.15
2022-09-06T19:18:00.411Z,9.18
2022-09-06T19:20:57.232Z,11.88
2022-09-06T19:23:45.362Z,9.65
2022-09-06T19:26:34.419Z,9.80
2022-09-06T19:29:21.018Z,11.25
2022-09-06T19:32:07.635Z,9.57
2022-09-06T19:34:53.923Z,9.05
2022-09-06T19:37:40.247Z,8.77
2022-09-06T19:40:26.357Z,8.63
2022-09-06T19:43:12.460Z,9.10
2022-09-06T19:46:05.649Z,9.15
2022-09-06T19:48:52.600Z,9.07
2022-09-06T19:51:39.665Z,8.13
2022-09-06T19:54:25.761Z,7.97
2022-09-06T19:57:12.057Z,9.02
2022-09-06T19:59:57.972Z,8.88
2022-09-06T20:02:44.208Z,8.20
2022-09-06T20:05:29.998Z,7.57
2022-09-06T20:08:16.062Z,7.65
2022-09-06T20:11:03.403Z,7.70
2022-09-06T20:13:49.523Z,7.90
2022-09-06T20:16:40.681Z,7.68
2022-09-06T20:19:27.765Z,8.07
2022-09-06T20:22:13.832Z,7.57
2022-09-06T20:24:59.855Z,8.02
2022-09-06T20:27:46.143Z,8.00
2022-09-06T20:30:32.076Z,8.38
2022-09-06T20:33:18.323Z,7.55
2022-09-06T20:36:06.249Z,7.57
2022-09-06T20:38:52.341Z,8.48
2022-09-06T20:41:38.602Z,8.07
2022-09-06T20:44:24.535Z,8.13
2022-09-06T20:47:10.375Z,7.72
2022-09-06T20:49:56.150Z,10.07
2022-09-06T20:52:42.305Z,11.60
2022-09-06T20:55:28.419Z,8.95
2022-09-06T20:58:14.323Z,8.52
2022-09-06T21:01:00.346Z,8.60
2022-09-06T21:03:46.498Z,9.10
2022-09-06T21:06:36.659Z,8.25
2022-09-06T21:09:22.937Z,8.40
2022-09-06T21:12:08.912Z,7.90
2022-09-06T21:14:55.159Z,8.13
2022-09-06T21:17:41.130Z,8.75
2022-09-06T21:20:26.874Z,10.25
2022-09-06T21:23:12.810Z,9.10
2022-09-06T21:26:10.270Z,8.65
2022-09-06T21:28:56.238Z,8.10
2022-09-06T21:31:42.507Z,7.70
2022-09-06T21:34:28.874Z,7.60
2022-09-06T21:37:14.871Z,7.50
2022-09-06T21:40:00.733Z,8.20
2022-09-06T21:42:47.237Z,8.38
2022-09-06T21:45:38.180Z,7.80
2022-09-06T21:48:24.534Z,7.63
2022-09-06T21:51:15.606Z,7.32
2022-09-06T21:54:05.096Z,8.02
2022-09-06T21:56:51.344Z,7.72
2022-09-06T21:59:37.315Z,8.25
2022-09-06T22:02:23.668Z,7.30
2022-09-06T22:05:10.042Z,7.55
2022-09-06T22:07:56.094Z,7.72
2022-09-06T22:10:42.164Z,8.55
2022-09-06T22:13:28.315Z,8.05
2022-09-06T22:16:15.732Z,7.40
2022-09-06T22:19:02.197Z,7.63
2022-09-06T22:21:48.591Z,8.35
2022-09-06T22:24:34.883Z,6.90
2022-09-06T22:27:20.823Z,7.35
2022-09-06T22:30:07.254Z,7.82
2022-09-06T22:32:53.777Z,7.50
2022-09-06T22:35:40.149Z,7.65
2022-09-06T22:38:27.345Z,7.50
2022-09-06T22:41:13.521Z,7.30
2022-09-06T22:44:03.736Z,7.38
2022-09-06T22:46:50.012Z,7.82
2022-09-06T22:49:36.122Z,7.35
2022-09-06T22:52:21.960Z,7.80
2022-09-06T22:55:08.341Z,7.03
2022-09-06T22:57:54.498Z,7.18
2022-09-06T23:00:40.473Z,7.57
2022-09-06T23:03:26.356Z,7.85
2022-09-06T23:06:12.676Z,6.88
2022-09-06T23:08:58.805Z,7.20
2022-09-06T23:11:45.377Z,7.63
2022-09-06T23:14:31.428Z,7.82
2022-09-06T23:17:17.451Z,8.15
2022-09-06T23:20:04.027Z,8.02
2022-09-06T23:22:50.119Z,7.32
2022-09-06T23:25:39.370Z,7.00
2022-09-06T23:28:25.463Z,6.95
2022-09-06T23:31:14.681Z,6.88
2022-09-06T23:34:01.568Z,7.55
2022-09-06T23:36:48.106Z,7.13
2022-09-06T23:39:34.210Z,6.70
2022-09-06T23:42:21.115Z,6.93
2022-09-06T23:45:07.362Z,7.15
2022-09-06T23:47:53.306Z,7.60
2022-09-06T23:50:39.449Z,6.75
2022-09-06T23:53:25.841Z,7.05
2022-09-06T23:56:12.352Z,7.38
2022-09-06T23:58:58.498Z,7.40
